sensor_id;sensor_type;location;lat;lon;timestamp;temperature;humidity
48836;DHT22;62581;47.342;7.908;2023-02-28T00:01:11;1.10;99.90
48836;DHT22;62581;47.342;7.908;2023-02-28T00:03:38;1.10;99.90
48836;DHT22;62581;47.342;7.908;2023-02-28T00:06:05;1.10;99.90
48836;DHT22;62581;47.342;7.908;2023-02-28T00:08:32;1.10;99.90
48836;DHT22;62581;47.342;7.908;2023-02-28T00:11:00;1.10;99.90
48836;DHT22;62581;47.342;7.908;2023-02-28T00:13:27;1.10;99.90
48836;DHT22;62581;47.342;7.908;2023-02-28T00:16:02;1.10;99.90
48836;DHT22;62581;47.342;7.908;2023-02-28T00:18:29;1.10;99.90
48836;DHT22;62581;47.342;7.908;2023-02-28T00:20:56;1.10;99.90
48836;DHT22;62581;47.342;7.908;2023-02-28T00:23:23;1.10;99.90
48836;DHT22;62581;47.342;7.908;2023-02-28T00:25:50;1.10;99.90
48836;DHT22;62581;47.342;7.908;2023-02-28T00:28:17;1.10;99.90
48836;DHT22;62581;47.342;7.908;2023-02-28T00:30:43;1.20;99.90
48836;DHT22;62581;47.342;7.908;2023-02-28T00:33:11;1.10;99.90
48836;DHT22;62581;47.342;7.908;2023-02-28T00:35:38;1.10;99.90
48836;DHT22;62581;47.342;7.908;2023-02-28T00:38:05;1.10;99.90
48836;DHT22;62581;47.342;7.908;2023-02-28T00:40:32;1.10;99.90
48836;DHT22;62581;47.342;7.908;2023-02-28T00:42:59;1.10;99.90
48836;DHT22;62581;47.342;7.908;2023-02-28T00:45:25;1.00;99.90
48836;DHT22;62581;47.342;7.908;2023-02-28T00:47:52;1.00;99.90
48836;DHT22;62581;47.342;7.908;2023-02-28T00:50:20;1.10;99.90
48836;DHT22;62581;47.342;7.908;2023-02-28T00:52:47;1.00;99.90
48836;DHT22;62581;47.342;7.908;2023-02-28T00:55:14;1.00;99.90
48836;DHT22;62581;47.342;7.908;2023-02-28T00:57:41;1.00;99.90
48836;DHT22;62581;47.342;7.908;2023-02-28T01:00:08;1.00;99.90
48836;DHT22;62581;47.342;7.908;2023-02-28T01:02:36;1.00;99.90
48836;DHT22;62581;47.342;7.908;2023-02-28T01:05:03;1.10;99.90
48836;DHT22;62581;47.342;7.908;2023-02-28T01:07:31;1.00;99.90
48836;DHT22;62581;47.342;7.908;2023-02-28T01:09:58;1.00;99.90
48836;DHT22;62581;47.342;7.908;2023-02-28T01:12:24;1.00;99.90
48836;DHT22;62581;47.342;7.908;2023-02-28T01:14:51;1.10;99.90
48836;DHT22;62581;47.342;7.908;2023-02-28T01:17:18;1.00;99.90
48836;DHT22;62581;47.342;7.908;2023-02-28T01:19:45;1.00;99.90
48836;DHT22;62581;47.342;7.908;2023-02-28T01:22:11;1.00;99.90
48836;DHT22;62581;47.342;7.908;2023-02-28T01:24:39;1.00;99.90
48836;DHT22;62581;47.342;7.908;2023-02-28T01:27:06;1.00;99.90
48836;DHT22;62581;47.342;7.908;2023-02-28T01:29:33;1.00;99.90
48836;DHT22;62581;47.342;7.908;2023-02-28T01:32:00;1.00;99.90
48836;DHT22;62581;47.342;7.908;2023-02-28T01:34:26;1.00;99.90
48836;DHT22;62581;47.342;7.908;2023-02-28T01:36:53;1.10;99.90
48836;DHT22;62581;47.342;7.908;2023-02-28T01:39:20;1.10;99.90
48836;DHT22;62581;47.342;7.908;2023-02-28T01:41:48;1.10;99.90
48836;DHT22;62581;47.342;7.908;2023-02-28T01:47:00;1.10;99.90
48836;DHT22;62581;47.342;7.908;2023-02-28T01:49:27;1.00;99.90
48836;DHT22;62581;47.342;7.908;2023-02-28T01:51:54;1.00;99.90
48836;DHT22;62581;47.342;7.908;2023-02-28T01:54:23;1.10;99.90
48836;DHT22;62581;47.342;7.908;2023-02-28T01:56:53;1.00;99.90
48836;DHT22;62581;47.342;7.908;2023-02-28T01:59:22;1.10;99.90
48836;DHT22;62581;47.342;7.908;2023-02-28T02:01:50;1.10;99.90
48836;DHT22;62581;47.342;7.908;2023-02-28T02:04:16;1.00;99.90
48836;DHT22;62581;47.342;7.908;2023-02-28T02:06:45;1.00;99.90
48836;DHT22;62581;47.342;7.908;2023-02-28T02:09:12;1.00;99.90
48836;DHT22;62581;47.342;7.908;2023-02-28T02:11:39;1.00;99.90
48836;DHT22;62581;47.342;7.908;2023-02-28T02:14:12;1.00;99.90
48836;DHT22;62581;47.342;7.908;2023-02-28T02:16:47;1.00;99.90
48836;DHT22;62581;47.342;7.908;2023-02-28T02:19:23;1.00;99.90
48836;DHT22;62581;47.342;7.908;2023-02-28T02:22:01;1.00;99.90
48836;DHT22;62581;47.342;7.908;2023-02-28T02:27:16;1.00;99.90
48836;DHT22;62581;47.342;7.908;2023-02-28T02:29:48;1.00;99.90
48836;DHT22;62581;47.342;7.908;2023-02-28T02:32:27;1.00;99.90
48836;DHT22;62581;47.342;7.908;2023-02-28T02:35:00;1.00;99.90
48836;DHT22;62581;47.342;7.908;2023-02-28T02:37:32;1.00;99.90
48836;DHT22;62581;47.342;7.908;2023-02-28T02:40:03;1.00;99.90
48836;DHT22;62581;47.342;7.908;2023-02-28T02:42:36;1.00;99.90
48836;DHT22;62581;47.342;7.908;2023-02-28T02:45:06;1.10;99.90
48836;DHT22;62581;47.342;7.908;2023-02-28T02:47:35;1.00;99.90
48836;DHT22;62581;47.342;7.908;2023-02-28T02:50:06;1.00;99.90
48836;DHT22;62581;47.342;7.908;2023-02-28T02:52:34;1.00;99.90
48836;DHT22;62581;47.342;7.908;2023-02-28T02:55:03;1.00;99.90
48836;DHT22;62581;47.342;7.908;2023-02-28T02:57:32;1.10;99.90
48836;DHT22;62581;47.342;7.908;2023-02-28T03:00:00;1.10;99.90
48836;DHT22;62581;47.342;7.908;2023-02-28T03:02:29;1.10;99.90
48836;DHT22;62581;47.342;7.908;2023-02-28T03:04:59;1.00;99.90
48836;DHT22;62581;47.342;7.908;2023-02-28T03:07:28;1.10;99.90
48836;DHT22;62581;47.342;7.908;2023-02-28T03:09:56;1.10;99.90
48836;DHT22;62581;47.342;7.908;2023-02-28T03:12:23;1.00;99.90
48836;DHT22;62581;47.342;7.908;2023-02-28T03:14:55;1.00;99.90
48836;DHT22;62581;47.342;7.908;2023-02-28T03:17:31;1.00;99.90
48836;DHT22;62581;47.342;7.908;2023-02-28T03:20:04;1.00;99.90
48836;DHT22;62581;47.342;7.908;2023-02-28T03:22:39;1.10;99.90
48836;DHT22;62581;47.342;7.908;2023-02-28T03:25:08;1.00;99.90
48836;DHT22;62581;47.342;7.908;2023-02-28T03:27:36;1.00;99.90
48836;DHT22;62581;47.342;7.908;2023-02-28T03:30:06;1.00;99.90
48836;DHT22;62581;47.342;7.908;2023-02-28T03:32:37;1.00;99.90
48836;DHT22;62581;47.342;7.908;2023-02-28T03:35:06;1.00;99.90
48836;DHT22;62581;47.342;7.908;2023-02-28T03:37:35;1.00;99.90
48836;DHT22;62581;47.342;7.908;2023-02-28T03:40:04;1.00;99.90
48836;DHT22;62581;47.342;7.908;2023-02-28T03:42:34;1.00;99.90
48836;DHT22;62581;47.342;7.908;2023-02-28T03:45:02;1.00;99.90
48836;DHT22;62581;47.342;7.908;2023-02-28T03:47:33;1.00;99.90
48836;DHT22;62581;47.342;7.908;2023-02-28T03:50:03;1.00;99.90
48836;DHT22;62581;47.342;7.908;2023-02-28T03:52:33;1.10;99.90
48836;DHT22;62581;47.342;7.908;2023-02-28T03:55:02;1.10;99.90
48836;DHT22;62581;47.342;7.908;2023-02-28T03:57:34;1.00;99.90
48836;DHT22;62581;47.342;7.908;2023-02-28T04:00:04;1.00;99.90
48836;DHT22;62581;47.342;7.908;2023-02-28T04:02:33;1.00;99.90
48836;DHT22;62581;47.342;7.908;2023-02-28T04:05:00;1.10;99.90
48836;DHT22;62581;47.342;7.908;2023-02-28T04:07:28;1.10;99.90
48836;DHT22;62581;47.342;7.908;2023-02-28T04:09:55;1.00;99.90
48836;DHT22;62581;47.342;7.908;2023-02-28T04:12:22;1.00;99.90
48836;DHT22;62581;47.342;7.908;2023-02-28T04:14:50;1.00;99.90
48836;DHT22;62581;47.342;7.908;2023-02-28T04:17:17;1.00;99.90
48836;DHT22;62581;47.342;7.908;2023-02-28T04:19:44;1.00;99.90
48836;DHT22;62581;47.342;7.908;2023-02-28T04:22:11;1.10;99.90
48836;DHT22;62581;47.342;7.908;2023-02-28T04:24:38;1.10;99.90
48836;DHT22;62581;47.342;7.908;2023-02-28T04:27:06;1.10;99.90
48836;DHT22;62581;47.342;7.908;2023-02-28T04:29:34;1.10;99.90
48836;DHT22;62581;47.342;7.908;2023-02-28T04:32:02;1.10;99.90
48836;DHT22;62581;47.342;7.908;2023-02-28T04:34:30;1.00;99.90
48836;DHT22;62581;47.342;7.908;2023-02-28T04:36:57;1.00;99.90
48836;DHT22;62581;47.342;7.908;2023-02-28T04:39:25;1.10;99.90
48836;DHT22;62581;47.342;7.908;2023-02-28T04:41:52;1.10;99.90
48836;DHT22;62581;47.342;7.908;2023-02-28T04:44:19;1.10;99.90
48836;DHT22;62581;47.342;7.908;2023-02-28T04:46:47;1.00;99.90
48836;DHT22;62581;47.342;7.908;2023-02-28T04:49:15;1.10;99.90
48836;DHT22;62581;47.342;7.908;2023-02-28T04:51:42;1.10;99.90
48836;DHT22;62581;47.342;7.908;2023-02-28T04:54:09;1.10;99.90
48836;DHT22;62581;47.342;7.908;2023-02-28T04:56:36;1.10;99.90
48836;DHT22;62581;47.342;7.908;2023-02-28T04:59:02;1.10;99.90
48836;DHT22;62581;47.342;7.908;2023-02-28T05:01:30;1.10;99.90
48836;DHT22;62581;47.342;7.908;2023-02-28T05:03:59;1.10;99.90
48836;DHT22;62581;47.342;7.908;2023-02-28T05:06:28;1.00;99.90
48836;DHT22;62581;47.342;7.908;2023-02-28T05:08:55;1.00;99.90
48836;DHT22;62581;47.342;7.908;2023-02-28T05:11:23;1.00;99.90
48836;DHT22;62581;47.342;7.908;2023-02-28T05:13:51;1.00;99.90
48836;DHT22;62581;47.342;7.908;2023-02-28T05:16:19;1.00;99.90
48836;DHT22;62581;47.342;7.908;2023-02-28T05:18:45;1.00;99.90
48836;DHT22;62581;47.342;7.908;2023-02-28T05:21:20;1.00;99.90
48836;DHT22;62581;47.342;7.908;2023-02-28T05:23:51;1.00;99.90
48836;DHT22;62581;47.342;7.908;2023-02-28T05:26:17;1.00;99.90
48836;DHT22;62581;47.342;7.908;2023-02-28T05:28:44;1.00;99.90
48836;DHT22;62581;47.342;7.908;2023-02-28T05:31:11;1.00;99.90
48836;DHT22;62581;47.342;7.908;2023-02-28T05:33:38;1.00;99.90
48836;DHT22;62581;47.342;7.908;2023-02-28T05:36:05;1.00;99.90
48836;DHT22;62581;47.342;7.908;2023-02-28T05:38:32;1.00;99.90
48836;DHT22;62581;47.342;7.908;2023-02-28T05:41:00;1.00;99.90
48836;DHT22;62581;47.342;7.908;2023-02-28T05:43:30;1.10;99.90
48836;DHT22;62581;47.342;7.908;2023-02-28T05:45:57;1.10;99.90
48836;DHT22;62581;47.342;7.908;2023-02-28T05:48:24;1.10;99.90
48836;DHT22;62581;47.342;7.908;2023-02-28T05:50:51;1.10;99.90
48836;DHT22;62581;47.342;7.908;2023-02-28T05:53:18;1.00;99.90
48836;DHT22;62581;47.342;7.908;2023-02-28T05:55:45;1.00;99.90
48836;DHT22;62581;47.342;7.908;2023-02-28T05:58:13;1.10;99.90
48836;DHT22;62581;47.342;7.908;2023-02-28T06:00:40;1.10;99.90
48836;DHT22;62581;47.342;7.908;2023-02-28T06:03:06;1.10;99.90
48836;DHT22;62581;47.342;7.908;2023-02-28T06:05:33;1.10;99.90
48836;DHT22;62581;47.342;7.908;2023-02-28T06:08:00;1.00;99.90
48836;DHT22;62581;47.342;7.908;2023-02-28T06:10:27;1.00;99.90
48836;DHT22;62581;47.342;7.908;2023-02-28T06:12:53;1.00;99.90
48836;DHT22;62581;47.342;7.908;2023-02-28T06:15:22;1.00;99.90
48836;DHT22;62581;47.342;7.908;2023-02-28T06:17:48;1.00;99.90
48836;DHT22;62581;47.342;7.908;2023-02-28T06:20:15;1.00;99.90
48836;DHT22;62581;47.342;7.908;2023-02-28T06:22:42;1.00;99.90
48836;DHT22;62581;47.342;7.908;2023-02-28T06:25:09;1.00;99.90
48836;DHT22;62581;47.342;7.908;2023-02-28T06:27:36;1.10;99.90
48836;DHT22;62581;47.342;7.908;2023-02-28T06:30:03;1.10;99.90
48836;DHT22;62581;47.342;7.908;2023-02-28T06:32:31;1.10;99.90
48836;DHT22;62581;47.342;7.908;2023-02-28T06:34:58;1.20;99.90
48836;DHT22;62581;47.342;7.908;2023-02-28T06:37:24;1.20;99.90
48836;DHT22;62581;47.342;7.908;2023-02-28T06:39:53;1.20;99.90
48836;DHT22;62581;47.342;7.908;2023-02-28T06:42:21;1.20;99.90
48836;DHT22;62581;47.342;7.908;2023-02-28T06:44:50;1.20;99.90
48836;DHT22;62581;47.342;7.908;2023-02-28T06:47:17;1.20;99.90
48836;DHT22;62581;47.342;7.908;2023-02-28T06:49:45;1.20;99.90
48836;DHT22;62581;47.342;7.908;2023-02-28T06:52:12;1.20;99.90
48836;DHT22;62581;47.342;7.908;2023-02-28T06:54:39;1.20;99.90
48836;DHT22;62581;47.342;7.908;2023-02-28T06:57:05;1.20;99.90
48836;DHT22;62581;47.342;7.908;2023-02-28T06:59:32;1.20;99.90
48836;DHT22;62581;47.342;7.908;2023-02-28T07:02:00;1.20;99.90
48836;DHT22;62581;47.342;7.908;2023-02-28T07:04:27;1.20;99.90
48836;DHT22;62581;47.342;7.908;2023-02-28T07:06:55;1.20;99.90
48836;DHT22;62581;47.342;7.908;2023-02-28T07:09:22;1.20;99.90
48836;DHT22;62581;47.342;7.908;2023-02-28T07:11:49;1.20;99.90
48836;DHT22;62581;47.342;7.908;2023-02-28T07:14:15;1.20;99.90
48836;DHT22;62581;47.342;7.908;2023-02-28T07:16:42;1.30;99.90
48836;DHT22;62581;47.342;7.908;2023-02-28T07:19:10;1.30;99.90
48836;DHT22;62581;47.342;7.908;2023-02-28T07:21:37;1.30;99.90
48836;DHT22;62581;47.342;7.908;2023-02-28T07:24:06;1.30;99.90
48836;DHT22;62581;47.342;7.908;2023-02-28T07:26:32;1.40;99.90
48836;DHT22;62581;47.342;7.908;2023-02-28T07:29:00;1.40;99.90
48836;DHT22;62581;47.342;7.908;2023-02-28T07:31:27;1.40;99.90
48836;DHT22;62581;47.342;7.908;2023-02-28T07:33:54;1.40;99.90
48836;DHT22;62581;47.342;7.908;2023-02-28T07:36:21;1.40;99.90
48836;DHT22;62581;47.342;7.908;2023-02-28T07:38:48;1.50;99.90
48836;DHT22;62581;47.342;7.908;2023-02-28T07:41:17;1.50;99.90
48836;DHT22;62581;47.342;7.908;2023-02-28T07:43:45;1.50;99.90
48836;DHT22;62581;47.342;7.908;2023-02-28T07:46:12;1.50;99.90
48836;DHT22;62581;47.342;7.908;2023-02-28T07:48:40;1.50;99.90
48836;DHT22;62581;47.342;7.908;2023-02-28T07:51:07;1.60;99.90
48836;DHT22;62581;47.342;7.908;2023-02-28T07:53:34;1.60;99.90
48836;DHT22;62581;47.342;7.908;2023-02-28T07:56:01;1.60;99.90
48836;DHT22;62581;47.342;7.908;2023-02-28T07:58:29;1.60;99.90
48836;DHT22;62581;47.342;7.908;2023-02-28T08:00:56;1.70;99.90
48836;DHT22;62581;47.342;7.908;2023-02-28T08:03:23;1.60;99.90
48836;DHT22;62581;47.342;7.908;2023-02-28T08:05:50;1.60;99.90
48836;DHT22;62581;47.342;7.908;2023-02-28T08:08:17;1.70;99.90
48836;DHT22;62581;47.342;7.908;2023-02-28T08:10:44;1.70;99.90
48836;DHT22;62581;47.342;7.908;2023-02-28T08:13:11;1.80;99.90
48836;DHT22;62581;47.342;7.908;2023-02-28T08:15:39;1.80;99.90
48836;DHT22;62581;47.342;7.908;2023-02-28T08:18:06;1.90;99.90
48836;DHT22;62581;47.342;7.908;2023-02-28T08:20:33;1.90;99.90
48836;DHT22;62581;47.342;7.908;2023-02-28T08:23:00;1.90;99.90
48836;DHT22;62581;47.342;7.908;2023-02-28T08:25:26;2.00;99.90
48836;DHT22;62581;47.342;7.908;2023-02-28T08:27:53;2.10;99.90
48836;DHT22;62581;47.342;7.908;2023-02-28T08:30:20;2.10;99.90
48836;DHT22;62581;47.342;7.908;2023-02-28T08:32:48;2.20;99.90
48836;DHT22;62581;47.342;7.908;2023-02-28T08:35:15;2.20;99.90
48836;DHT22;62581;47.342;7.908;2023-02-28T08:37:41;2.30;99.90
48836;DHT22;62581;47.342;7.908;2023-02-28T08:40:08;2.30;99.90
48836;DHT22;62581;47.342;7.908;2023-02-28T08:42:35;2.30;99.90
48836;DHT22;62581;47.342;7.908;2023-02-28T08:45:02;2.30;99.90
48836;DHT22;62581;47.342;7.908;2023-02-28T08:47:29;2.40;99.90
48836;DHT22;62581;47.342;7.908;2023-02-28T08:49:58;2.40;99.90
48836;DHT22;62581;47.342;7.908;2023-02-28T08:52:24;2.50;99.90
48836;DHT22;62581;47.342;7.908;2023-02-28T08:54:51;2.50;99.90
48836;DHT22;62581;47.342;7.908;2023-02-28T08:57:18;2.60;99.90
48836;DHT22;62581;47.342;7.908;2023-02-28T08:59:45;2.70;99.90
48836;DHT22;62581;47.342;7.908;2023-02-28T09:02:12;2.80;99.90
48836;DHT22;62581;47.342;7.908;2023-02-28T09:04:39;2.80;99.90
48836;DHT22;62581;47.342;7.908;2023-02-28T09:07:07;2.80;99.90
48836;DHT22;62581;47.342;7.908;2023-02-28T09:09:34;2.80;99.90
48836;DHT22;62581;47.342;7.908;2023-02-28T09:12:01;2.80;99.90
48836;DHT22;62581;47.342;7.908;2023-02-28T09:14:27;2.80;99.90
48836;DHT22;62581;47.342;7.908;2023-02-28T09:16:54;2.70;99.90
48836;DHT22;62581;47.342;7.908;2023-02-28T09:19:21;2.70;99.90
48836;DHT22;62581;47.342;7.908;2023-02-28T09:21:48;2.80;99.90
48836;DHT22;62581;47.342;7.908;2023-02-28T09:24:16;3.10;99.90
48836;DHT22;62581;47.342;7.908;2023-02-28T09:26:43;3.20;99.90
48836;DHT22;62581;47.342;7.908;2023-02-28T09:29:10;3.20;99.90
48836;DHT22;62581;47.342;7.908;2023-02-28T09:31:37;3.40;99.90
48836;DHT22;62581;47.342;7.908;2023-02-28T09:34:04;3.30;99.90
48836;DHT22;62581;47.342;7.908;2023-02-28T09:36:31;3.50;99.90
48836;DHT22;62581;47.342;7.908;2023-02-28T09:38:58;3.60;99.90
48836;DHT22;62581;47.342;7.908;2023-02-28T09:41:26;3.70;99.90
48836;DHT22;62581;47.342;7.908;2023-02-28T09:43:56;3.70;99.90
48836;DHT22;62581;47.342;7.908;2023-02-28T09:46:28;3.80;99.90
48836;DHT22;62581;47.342;7.908;2023-02-28T09:48:56;3.80;99.90
48836;DHT22;62581;47.342;7.908;2023-02-28T09:51:27;3.90;99.90
48836;DHT22;62581;47.342;7.908;2023-02-28T09:53:54;3.90;99.90
48836;DHT22;62581;47.342;7.908;2023-02-28T09:56:22;3.80;99.90
48836;DHT22;62581;47.342;7.908;2023-02-28T09:58:54;3.90;99.90
48836;DHT22;62581;47.342;7.908;2023-02-28T10:01:23;4.00;99.90
48836;DHT22;62581;47.342;7.908;2023-02-28T10:03:53;4.00;99.90
48836;DHT22;62581;47.342;7.908;2023-02-28T10:06:22;4.10;99.90
48836;DHT22;62581;47.342;7.908;2023-02-28T10:08:55;4.10;99.90
48836;DHT22;62581;47.342;7.908;2023-02-28T10:11:23;4.20;99.90
48836;DHT22;62581;47.342;7.908;2023-02-28T10:13:52;4.10;99.90
48836;DHT22;62581;47.342;7.908;2023-02-28T10:16:23;4.20;99.90
48836;DHT22;62581;47.342;7.908;2023-02-28T10:18:52;4.20;99.90
48836;DHT22;62581;47.342;7.908;2023-02-28T10:21:23;4.20;99.90
48836;DHT22;62581;47.342;7.908;2023-02-28T10:23:53;4.20;99.90
48836;DHT22;62581;47.342;7.908;2023-02-28T10:26:22;4.10;99.90
48836;DHT22;62581;47.342;7.908;2023-02-28T10:28:52;4.10;99.90
48836;DHT22;62581;47.342;7.908;2023-02-28T10:31:19;4.10;99.90
48836;DHT22;62581;47.342;7.908;2023-02-28T10:33:48;4.10;99.90
48836;DHT22;62581;47.342;7.908;2023-02-28T10:36:16;4.10;99.90
48836;DHT22;62581;47.342;7.908;2023-02-28T10:38:43;4.10;99.90
48836;DHT22;62581;47.342;7.908;2023-02-28T10:41:12;4.20;99.90
48836;DHT22;62581;47.342;7.908;2023-02-28T10:43:40;4.30;99.90
48836;DHT22;62581;47.342;7.908;2023-02-28T10:46:11;4.40;99.90
48836;DHT22;62581;47.342;7.908;2023-02-28T10:48:41;4.50;99.90
48836;DHT22;62581;47.342;7.908;2023-02-28T10:51:11;4.60;99.90
48836;DHT22;62581;47.342;7.908;2023-02-28T10:53:40;4.50;99.90
48836;DHT22;62581;47.342;7.908;2023-02-28T10:56:14;4.70;99.90
48836;DHT22;62581;47.342;7.908;2023-02-28T10:58:46;4.80;99.90
48836;DHT22;62581;47.342;7.908;2023-02-28T11:01:14;4.80;99.90
48836;DHT22;62581;47.342;7.908;2023-02-28T11:03:41;5.00;99.90
48836;DHT22;62581;47.342;7.908;2023-02-28T11:06:10;4.90;99.90
48836;DHT22;62581;47.342;7.908;2023-02-28T11:08:45;4.90;99.90
48836;DHT22;62581;47.342;7.908;2023-02-28T11:11:12;4.90;99.90
48836;DHT22;62581;47.342;7.908;2023-02-28T11:13:39;4.90;99.90
48836;DHT22;62581;47.342;7.908;2023-02-28T11:16:07;5.00;99.90
48836;DHT22;62581;47.342;7.908;2023-02-28T11:18:37;5.00;99.90
48836;DHT22;62581;47.342;7.908;2023-02-28T11:21:05;5.10;99.90
48836;DHT22;62581;47.342;7.908;2023-02-28T11:23:33;5.20;99.90
48836;DHT22;62581;47.342;7.908;2023-02-28T11:26:03;5.00;99.90
48836;DHT22;62581;47.342;7.908;2023-02-28T11:28:35;5.00;99.90
48836;DHT22;62581;47.342;7.908;2023-02-28T11:31:04;5.10;99.90
48836;DHT22;62581;47.342;7.908;2023-02-28T11:33:32;5.20;99.90
48836;DHT22;62581;47.342;7.908;2023-02-28T11:36:00;5.20;99.90
48836;DHT22;62581;47.342;7.908;2023-02-28T11:38:27;5.10;99.90
48836;DHT22;62581;47.342;7.908;2023-02-28T11:40:59;4.90;99.90
48836;DHT22;62581;47.342;7.908;2023-02-28T11:43:35;4.70;99.90
48836;DHT22;62581;47.342;7.908;2023-02-28T11:46:07;4.70;99.90
48836;DHT22;62581;47.342;7.908;2023-02-28T11:48:38;4.70;99.90
48836;DHT22;62581;47.342;7.908;2023-02-28T11:51:08;4.70;99.90
48836;DHT22;62581;47.342;7.908;2023-02-28T11:53:43;4.70;99.90
48836;DHT22;62581;47.342;7.908;2023-02-28T11:56:14;4.60;99.90
48836;DHT22;62581;47.342;7.908;2023-02-28T11:58:47;4.70;99.90
48836;DHT22;62581;47.342;7.908;2023-02-28T12:01:18;4.60;99.90
48836;DHT22;62581;47.342;7.908;2023-02-28T12:03:54;4.70;99.90
48836;DHT22;62581;47.342;7.908;2023-02-28T12:06:25;4.70;99.90
48836;DHT22;62581;47.342;7.908;2023-02-28T12:09:00;4.70;99.90
48836;DHT22;62581;47.342;7.908;2023-02-28T12:11:40;4.60;99.90
48836;DHT22;62581;47.342;7.908;2023-02-28T12:14:18;4.70;99.90
48836;DHT22;62581;47.342;7.908;2023-02-28T12:16:51;4.70;99.90
48836;DHT22;62581;47.342;7.908;2023-02-28T12:19:22;4.70;99.90
48836;DHT22;62581;47.342;7.908;2023-02-28T12:24:50;4.80;99.90
48836;DHT22;62581;47.342;7.908;2023-02-28T12:27:20;4.70;99.90
48836;DHT22;62581;47.342;7.908;2023-02-28T12:29:51;4.80;99.90
48836;DHT22;62581;47.342;7.908;2023-02-28T12:32:21;4.80;99.90
48836;DHT22;62581;47.342;7.908;2023-02-28T12:34:50;4.70;99.90
48836;DHT22;62581;47.342;7.908;2023-02-28T12:37:21;4.80;99.90
48836;DHT22;62581;47.342;7.908;2023-02-28T12:39:50;4.80;99.90
48836;DHT22;62581;47.342;7.908;2023-02-28T12:42:19;4.80;99.90
48836;DHT22;62581;47.342;7.908;2023-02-28T12:44:47;4.80;99.90
48836;DHT22;62581;47.342;7.908;2023-02-28T12:47:17;4.70;99.90
48836;DHT22;62581;47.342;7.908;2023-02-28T12:49:45;4.70;99.90
48836;DHT22;62581;47.342;7.908;2023-02-28T12:52:13;4.60;99.90
48836;DHT22;62581;47.342;7.908;2023-02-28T12:54:44;4.50;99.90
48836;DHT22;62581;47.342;7.908;2023-02-28T12:57:13;4.50;99.90
48836;DHT22;62581;47.342;7.908;2023-02-28T12:59:42;4.60;99.90
48836;DHT22;62581;47.342;7.908;2023-02-28T13:08:00;4.50;99.90
48836;DHT22;62581;47.342;7.908;2023-02-28T13:10:40;4.50;99.90
48836;DHT22;62581;47.342;7.908;2023-02-28T13:13:11;4.40;99.90
48836;DHT22;62581;47.342;7.908;2023-02-28T13:15:40;4.30;99.90
48836;DHT22;62581;47.342;7.908;2023-02-28T13:18:23;4.20;99.90
48836;DHT22;62581;47.342;7.908;2023-02-28T13:20:54;4.30;99.90
48836;DHT22;62581;47.342;7.908;2023-02-28T13:23:38;4.30;99.90
48836;DHT22;62581;47.342;7.908;2023-02-28T13:26:05;4.30;99.90
48836;DHT22;62581;47.342;7.908;2023-02-28T13:31:23;4.30;99.90
48836;DHT22;62581;47.342;7.908;2023-02-28T13:34:12;4.20;99.90
48836;DHT22;62581;47.342;7.908;2023-02-28T13:36:39;4.10;99.90
48836;DHT22;62581;47.342;7.908;2023-02-28T13:41:53;4.10;99.90
48836;DHT22;62581;47.342;7.908;2023-02-28T13:44:20;4.10;99.90
48836;DHT22;62581;47.342;7.908;2023-02-28T13:49:37;4.00;99.90
48836;DHT22;62581;47.342;7.908;2023-02-28T13:52:07;3.90;99.90
48836;DHT22;62581;47.342;7.908;2023-02-28T13:54:41;3.90;99.90
48836;DHT22;62581;47.342;7.908;2023-02-28T13:57:19;3.90;99.90
48836;DHT22;62581;47.342;7.908;2023-02-28T13:59:50;3.80;99.90
48836;DHT22;62581;47.342;7.908;2023-02-28T14:02:28;3.70;99.90
48836;DHT22;62581;47.342;7.908;2023-02-28T14:05:01;3.70;99.90
48836;DHT22;62581;47.342;7.908;2023-02-28T14:07:29;3.70;99.90
48836;DHT22;62581;47.342;7.908;2023-02-28T14:09:59;3.70;99.90
48836;DHT22;62581;47.342;7.908;2023-02-28T14:15:34;3.60;99.90
48836;DHT22;62581;47.342;7.908;2023-02-28T14:18:03;3.50;99.90
48836;DHT22;62581;47.342;7.908;2023-02-28T14:20:32;3.50;99.90
48836;DHT22;62581;47.342;7.908;2023-02-28T14:23:02;3.50;99.90
48836;DHT22;62581;47.342;7.908;2023-02-28T14:25:31;3.50;99.90
48836;DHT22;62581;47.342;7.908;2023-02-28T14:28:04;3.50;99.90
48836;DHT22;62581;47.342;7.908;2023-02-28T14:30:59;3.50;99.90
48836;DHT22;62581;47.342;7.908;2023-02-28T14:33:31;3.50;99.90
48836;DHT22;62581;47.342;7.908;2023-02-28T14:38:43;3.40;99.90
48836;DHT22;62581;47.342;7.908;2023-02-28T14:41:15;3.40;99.90
48836;DHT22;62581;47.342;7.908;2023-02-28T14:43:56;3.30;99.90
48836;DHT22;62581;47.342;7.908;2023-02-28T14:46:25;3.30;99.90
48836;DHT22;62581;47.342;7.908;2023-02-28T14:48:53;3.30;99.90
48836;DHT22;62581;47.342;7.908;2023-02-28T14:51:21;3.30;99.90
48836;DHT22;62581;47.342;7.908;2023-02-28T14:53:49;3.30;99.90
48836;DHT22;62581;47.342;7.908;2023-02-28T14:56:20;3.30;99.90
48836;DHT22;62581;47.342;7.908;2023-02-28T14:58:50;3.30;99.90
48836;DHT22;62581;47.342;7.908;2023-02-28T15:01:19;3.30;99.90
48836;DHT22;62581;47.342;7.908;2023-02-28T15:03:47;3.30;99.90
48836;DHT22;62581;47.342;7.908;2023-02-28T15:06:15;3.20;99.90
48836;DHT22;62581;47.342;7.908;2023-02-28T15:08:43;3.20;99.90
48836;DHT22;62581;47.342;7.908;2023-02-28T15:11:13;3.10;99.90
48836;DHT22;62581;47.342;7.908;2023-02-28T15:13:40;3.10;99.90
48836;DHT22;62581;47.342;7.908;2023-02-28T15:16:10;3.00;99.90
48836;DHT22;62581;47.342;7.908;2023-02-28T15:18:41;3.00;99.90
48836;DHT22;62581;47.342;7.908;2023-02-28T15:21:12;3.00;99.90
48836;DHT22;62581;47.342;7.908;2023-02-28T15:23:40;2.90;99.90
48836;DHT22;62581;47.342;7.908;2023-02-28T15:26:07;2.80;99.90
48836;DHT22;62581;47.342;7.908;2023-02-28T15:28:36;2.80;99.90
48836;DHT22;62581;47.342;7.908;2023-02-28T15:31:03;2.80;99.90
48836;DHT22;62581;47.342;7.908;2023-02-28T15:33:51;2.80;99.90
48836;DHT22;62581;47.342;7.908;2023-02-28T15:36:20;2.90;99.90
48836;DHT22;62581;47.342;7.908;2023-02-28T15:38:50;2.90;99.90
48836;DHT22;62581;47.342;7.908;2023-02-28T15:41:27;2.90;99.90
48836;DHT22;62581;47.342;7.908;2023-02-28T15:44:15;2.90;99.90
48836;DHT22;62581;47.342;7.908;2023-02-28T15:46:44;3.00;99.90
48836;DHT22;62581;47.342;7.908;2023-02-28T15:49:16;3.00;99.90
48836;DHT22;62581;47.342;7.908;2023-02-28T15:51:45;3.00;99.90
48836;DHT22;62581;47.342;7.908;2023-02-28T15:54:13;3.00;99.90
48836;DHT22;62581;47.342;7.908;2023-02-28T15:56:43;3.00;99.90
48836;DHT22;62581;47.342;7.908;2023-02-28T15:59:13;2.90;99.90
48836;DHT22;62581;47.342;7.908;2023-02-28T16:01:40;2.90;99.90
48836;DHT22;62581;47.342;7.908;2023-02-28T16:04:12;2.90;99.90
48836;DHT22;62581;47.342;7.908;2023-02-28T16:06:40;2.90;99.90
48836;DHT22;62581;47.342;7.908;2023-02-28T16:09:11;2.90;99.90
48836;DHT22;62581;47.342;7.908;2023-02-28T16:11:39;2.90;99.90
48836;DHT22;62581;47.342;7.908;2023-02-28T16:14:10;2.80;99.90
48836;DHT22;62581;47.342;7.908;2023-02-28T16:16:41;2.80;99.90
48836;DHT22;62581;47.342;7.908;2023-02-28T16:19:09;2.80;99.90
48836;DHT22;62581;47.342;7.908;2023-02-28T16:21:36;2.80;99.90
48836;DHT22;62581;47.342;7.908;2023-02-28T16:24:02;2.70;99.90